Time,TemperatureF,DewpointF,PressureIn,WindDirection,WindDirectionDegrees,WindSpeedMPH,WindSpeedGustMPH,Humidity,HourlyPrecipIn,Conditions,Clouds,dailyrainin,SoftwareType,DateUTC
2017-02-20 00:04:00,44.1,42.8,30.18,South,187,0.0,0.0,95,0.00,,,0.00,meteobridge,2017-02-20 05:04:00,
2017-02-20 00:09:00,43.5,42.3,30.18,South,187,0.0,0.0,95,0.00,,,0.00,meteobridge,2017-02-20 05:09:00,
2017-02-20 00:14:00,43.3,42.1,30.19,SSW,212,0.0,0.0,95,0.00,,,0.00,meteobridge,2017-02-20 05:14:00,
2017-02-20 00:19:00,43.3,42.3,30.19,SSW,212,0.0,0.0,96,0.00,,,0.00,meteobridge,2017-02-20 05:19:00,
2017-02-20 00:24:00,43.3,42.3,30.19,SSW,212,0.0,0.0,96,0.00,,,0.00,meteobridge,2017-02-20 05:24:00,
2017-02-20 00:29:00,43.3,42.3,30.19,SSW,212,0.0,0.0,96,0.00,,,0.00,meteobridge,2017-02-20 05:29:00,
2017-02-20 00:34:00,43.0,41.7,30.19,SSW,212,0.0,0.0,95,0.00,,,0.00,meteobridge,2017-02-20 05:34:00,
2017-02-20 00:39:00,42.6,41.4,30.19,SSW,212,0.0,0.0,95,0.00,,,0.00,meteobridge,2017-02-20 05:39:00,
2017-02-20 00:44:00,42.3,41.0,30.19,SSW,212,0.0,0.0,95,0.00,,,0.00,meteobridge,2017-02-20 05:44:00,
2017-02-20 00:49:00,41.7,40.5,30.19,SE,143,0.0,0.0,95,0.00,,,0.00,meteobridge,2017-02-20 05:49:00,
2017-02-20 00:54:00,40.6,39.0,30.20,SE,143,0.0,0.0,94,0.00,,,0.00,meteobridge,2017-02-20 05:54:00,
2017-02-20 00:59:00,39.7,38.1,30.19,SE,143,0.0,0.0,94,0.00,,,0.00,meteobridge,2017-02-20 05:59:00,
2017-02-20 01:04:00,39.6,38.3,30.20,SE,143,0.0,0.0,95,0.00,,,0.00,meteobridge,2017-02-20 06:04:00,
2017-02-20 01:09:00,39.6,38.5,30.19,SE,143,0.0,0.0,96,0.00,,,0.00,meteobridge,2017-02-20 06:09:00,
2017-02-20 01:14:00,39.0,37.8,30.19,SE,143,0.0,0.0,95,0.00,,,0.00,meteobridge,2017-02-20 06:14:00,
2017-02-20 01:19:00,37.9,36.3,30.19,ESE,109,0.0,0.0,94,0.00,,,0.00,meteobridge,2017-02-20 06:19:00,
2017-02-20 01:24:00,37.8,36.5,30.20,ESE,110,0.0,0.0,95,0.00,,,0.00,meteobridge,2017-02-20 06:24:00,
2017-02-20 01:29:00,37.2,36.0,30.20,ESE,110,0.0,0.0,95,0.00,,,0.00,meteobridge,2017-02-20 06:29:00,
2017-02-20 01:35:00,36.7,35.4,30.20,ESE,109,0.0,0.0,95,0.00,,,0.00,meteobridge,2017-02-20 06:35:00,
2017-02-20 01:40:00,36.9,35.8,30.20,ESE,110,0.0,0.0,96,0.00,,,0.00,meteobridge,2017-02-20 06:40:00,
2017-02-20 01:45:00,36.5,35.2,30.20,ESE,110,0.0,0.0,95,0.00,,,0.00,meteobridge,2017-02-20 06:45:00,
2017-02-20 01:50:00,36.7,35.6,30.20,ESE,109,0.0,0.0,96,0.00,,,0.00,meteobridge,2017-02-20 06:50:00,
2017-02-20 01:55:00,36.7,35.6,30.20,ESE,109,0.0,0.0,96,0.00,,,0.00,meteobridge,2017-02-20 06:55:00,
2017-02-20 02:00:00,36.1,34.9,30.20,East,86,0.0,0.0,95,0.00,,,0.00,meteobridge,2017-02-20 07:00:00,
2017-02-20 02:05:00,35.2,34.0,30.20,East,86,0.0,0.0,95,0.00,,,0.00,meteobridge,2017-02-20 07:05:00,
2017-02-20 02:10:00,34.7,33.4,30.20,East,86,0.0,0.0,95,0.00,,,0.00,meteobridge,2017-02-20 07:10:00,
2017-02-20 02:15:00,34.2,32.9,30.20,East,82,0.0,0.0,95,0.00,,,0.00,meteobridge,2017-02-20 07:15:00,
2017-02-20 02:20:00,34.0,32.7,30.20,East,82,0.0,0.0,95,0.00,,,0.00,meteobridge,2017-02-20 07:20:00,
2017-02-20 02:25:00,33.6,32.4,30.20,East,82,0.0,0.0,95,0.00,,,0.00,meteobridge,2017-02-20 07:25:00,
2017-02-20 02:30:00,34.0,32.9,30.20,East,82,0.0,0.0,96,0.00,,,0.00,meteobridge,2017-02-20 07:30:00,
2017-02-20 02:35:00,34.0,32.9,30.20,East,82,0.0,0.0,96,0.00,,,0.00,meteobridge,2017-02-20 07:35:00,
2017-02-20 02:40:00,34.0,32.9,30.19,East,82,0.0,0.0,96,0.00,,,0.00,meteobridge,2017-02-20 07:40:00,
2017-02-20 02:45:00,33.6,32.5,30.19,East,82,0.0,0.0,96,0.00,,,0.00,meteobridge,2017-02-20 07:45:00,
2017-02-20 02:51:00,33.4,32.4,30.20,East,82,0.0,0.0,96,0.00,,,0.00,meteobridge,2017-02-20 07:51:00,
2017-02-20 02:56:00,33.4,32.4,30.20,East,82,0.0,0.0,96,0.00,,,0.00,meteobridge,2017-02-20 07:56:00,
2017-02-20 03:01:00,33.3,32.2,30.20,East,82,0.0,0.0,96,0.00,,,0.00,meteobridge,2017-02-20 08:01:00,
2017-02-20 03:06:00,33.1,32.0,30.20,ESE,110,0.0,0.0,96,0.00,,,0.00,meteobridge,2017-02-20 08:06:00,
2017-02-20 03:11:00,33.1,32.0,30.19,ESE,106,0.0,0.0,96,0.00,,,0.00,meteobridge,2017-02-20 08:11:00,
2017-02-20 03:16:00,32.7,31.6,30.19,ESE,106,0.0,0.0,96,0.00,,,0.00,meteobridge,2017-02-20 08:16:00,
2017-02-20 03:21:00,32.7,31.6,30.19,ESE,109,0.0,0.0,96,0.00,,,0.00,meteobridge,2017-02-20 08:21:00,
2017-02-20 03:26:00,32.9,31.8,30.19,ESE,115,0.0,0.0,96,0.00,,,0.00,meteobridge,2017-02-20 08:26:00,
2017-02-20 03:31:00,33.1,32.0,30.19,SE,134,0.0,0.0,96,0.00,,,0.00,meteobridge,2017-02-20 08:31:00,
2017-02-20 03:36:00,32.9,31.8,30.19,SE,134,0.0,0.0,96,0.00,,,0.00,meteobridge,2017-02-20 08:36:00,
2017-02-20 03:41:00,32.9,31.8,30.20,SE,134,0.0,0.0,96,0.00,,,0.00,meteobridge,2017-02-20 08:41:00,
2017-02-20 03:46:00,32.9,31.8,30.19,SE,134,0.0,0.0,96,0.00,,,0.00,meteobridge,2017-02-20 08:46:00,
2017-02-20 03:51:00,32.9,31.8,30.20,SE,136,0.0,0.0,96,0.00,,,0.00,meteobridge,2017-02-20 08:51:00,
2017-02-20 03:56:00,32.7,31.6,30.20,SE,136,0.0,0.0,96,0.00,,,0.00,meteobridge,2017-02-20 08:56:00,
2017-02-20 04:02:00,32.7,31.6,30.20,SE,136,0.0,0.0,96,0.00,,,0.00,meteobridge,2017-02-20 09:02:00,
2017-02-20 04:07:00,32.5,31.5,30.21,SE,136,0.0,0.0,96,0.00,,,0.00,meteobridge,2017-02-20 09:07:00,
2017-02-20 04:12:00,32.5,31.5,30.21,SE,136,0.0,0.0,96,0.00,,,0.00,meteobridge,2017-02-20 09:12:00,
2017-02-20 04:17:00,32.5,31.5,30.21,SE,136,0.0,0.0,96,0.00,,,0.00,meteobridge,2017-02-20 09:17:00,
2017-02-20 04:22:00,32.5,31.5,30.21,SE,136,0.0,0.0,96,0.01,,,0.01,meteobridge,2017-02-20 09:22:00,
2017-02-20 04:27:00,32.7,32.0,30.21,SE,136,0.0,0.0,97,0.01,,,0.01,meteobridge,2017-02-20 09:27:00,
2017-02-20 04:32:00,32.7,32.0,30.21,SE,136,0.0,0.0,97,0.01,,,0.01,meteobridge,2017-02-20 09:32:00,
2017-02-20 04:37:00,32.7,32.0,30.21,SE,136,0.0,0.0,97,0.01,,,0.01,meteobridge,2017-02-20 09:37:00,
2017-02-20 04:42:00,32.9,32.2,30.21,SE,134,0.0,0.0,97,0.01,,,0.01,meteobridge,2017-02-20 09:42:00,
2017-02-20 04:47:00,33.1,32.4,30.21,SE,134,0.0,0.0,97,0.01,,,0.01,meteobridge,2017-02-20 09:47:00,
2017-02-20 04:52:00,33.1,32.4,30.22,SE,134,0.0,0.0,97,0.01,,,0.01,meteobridge,2017-02-20 09:52:00,
2017-02-20 04:57:00,33.1,32.4,30.21,ESE,110,0.0,0.0,97,0.01,,,0.01,meteobridge,2017-02-20 09:57:00,
2017-02-20 05:02:00,33.1,32.4,30.22,SE,127,0.0,0.0,97,0.01,,,0.01,meteobridge,2017-02-20 10:02:00,
2017-02-20 05:07:00,33.1,32.4,30.22,SE,131,0.0,0.0,97,0.01,,,0.01,meteobridge,2017-02-20 10:07:00,
2017-02-20 05:12:00,33.1,32.4,30.21,ESE,106,0.0,0.0,97,0.01,,,0.01,meteobridge,2017-02-20 10:12:00,
2017-02-20 05:17:00,33.1,32.4,30.21,ESE,103,0.0,0.0,97,0.01,,,0.01,meteobridge,2017-02-20 10:17:00,
2017-02-20 05:22:00,33.1,32.4,30.22,ESE,106,0.0,0.0,97,0.00,,,0.01,meteobridge,2017-02-20 10:22:00,
2017-02-20 05:27:00,33.3,32.5,30.22,SSE,149,0.0,0.0,97,0.00,,,0.01,meteobridge,2017-02-20 10:27:00,
2017-02-20 05:32:00,33.3,32.5,30.22,SSE,168,0.0,0.0,97,0.00,,,0.01,meteobridge,2017-02-20 10:32:00,
2017-02-20 05:37:00,33.3,32.5,30.22,SSE,161,0.0,0.0,97,0.00,,,0.01,meteobridge,2017-02-20 10:37:00,
2017-02-20 05:38:00,33.3,32.5,30.22,SSE,167,0.0,0.0,97,0.00,,,0.01,meteobridge,2017-02-20 10:38:00,
2017-02-20 05:44:00,33.1,32.4,30.23,South,178,0.0,0.0,97,0.00,,,0.01,meteobridge,2017-02-20 10:44:00,
2017-02-20 05:49:00,33.1,32.4,30.23,SSE,161,0.0,0.0,97,0.00,,,0.01,meteobridge,2017-02-20 10:49:00,
2017-02-20 05:54:00,33.1,32.4,30.23,SSW,193,0.9,1.0,97,0.00,,,0.01,meteobridge,2017-02-20 10:54:00,
2017-02-20 05:59:00,33.1,32.4,30.23,South,174,0.0,0.0,97,0.00,,,0.01,meteobridge,2017-02-20 10:59:00,
2017-02-20 06:04:00,33.1,32.4,30.24,South,174,0.0,0.0,97,0.00,,,0.01,meteobridge,2017-02-20 11:04:00,
2017-02-20 06:09:00,33.1,32.4,30.24,South,174,0.0,0.0,97,0.00,,,0.01,meteobridge,2017-02-20 11:09:00,
2017-02-20 06:14:00,33.1,32.4,30.24,South,174,0.0,0.0,97,0.00,,,0.01,meteobridge,2017-02-20 11:14:00,
2017-02-20 06:19:00,33.1,32.4,30.24,South,174,0.0,0.0,97,0.00,,,0.01,meteobridge,2017-02-20 11:19:00,
2017-02-20 06:24:00,33.1,32.4,30.24,South,174,0.0,0.0,97,0.00,,,0.01,meteobridge,2017-02-20 11:24:00,
2017-02-20 06:29:00,33.1,32.4,30.24,South,174,0.0,0.0,97,0.00,,,0.01,meteobridge,2017-02-20 11:29:00,
2017-02-20 06:34:00,33.1,32.4,30.24,South,174,0.0,0.0,97,0.00,,,0.01,meteobridge,2017-02-20 11:34:00,
2017-02-20 06:40:00,33.1,32.4,30.24,South,174,0.0,0.0,97,0.00,,,0.01,meteobridge,2017-02-20 11:40:00,
2017-02-20 06:45:00,33.3,32.5,30.25,SSE,158,0.0,0.0,97,0.00,,,0.01,meteobridge,2017-02-20 11:45:00,
2017-02-20 06:50:00,33.3,32.5,30.25,SSE,152,0.0,0.0,97,0.00,,,0.01,meteobridge,2017-02-20 11:50:00,
2017-02-20 06:55:00,33.4,32.7,30.25,SE,140,0.0,0.0,97,0.00,,,0.01,meteobridge,2017-02-20 11:55:00,
2017-02-20 07:01:00,33.6,32.9,30.25,SE,134,0.0,0.0,97,0.00,,,0.01,meteobridge,2017-02-20 12:01:00,
2017-02-20 07:06:00,33.6,32.9,30.25,SE,139,0.0,0.0,97,0.00,,,0.01,meteobridge,2017-02-20 12:06:00,
2017-02-20 07:11:00,34.0,33.3,30.25,SE,139,0.0,0.0,97,0.00,,,0.01,meteobridge,2017-02-20 12:11:00,
2017-02-20 07:17:00,34.2,33.4,30.26,SE,139,0.0,0.0,97,0.00,,,0.01,meteobridge,2017-02-20 12:17:00,
2017-02-20 07:22:00,34.3,33.6,30.26,SE,139,0.0,0.0,97,0.00,,,0.01,meteobridge,2017-02-20 12:22:00,
2017-02-20 07:27:00,34.3,33.6,30.26,SE,139,0.0,0.0,97,0.00,,,0.01,meteobridge,2017-02-20 12:27:00,
2017-02-20 07:33:00,34.5,33.8,30.26,ESE,112,0.0,0.0,97,0.00,,,0.01,meteobridge,2017-02-20 12:33:00,
2017-02-20 07:38:00,34.9,34.2,30.26,ESE,103,0.0,0.0,97,0.00,,,0.01,meteobridge,2017-02-20 12:38:00,
2017-02-20 07:43:00,34.9,34.2,30.26,ESE,103,0.0,0.0,97,0.00,,,0.01,meteobridge,2017-02-20 12:43:00,
2017-02-20 07:49:00,35.1,34.3,30.27,ESE,106,0.0,0.0,97,0.00,,,0.01,meteobridge,2017-02-20 12:49:00,
2017-02-20 07:54:00,35.2,34.5,30.27,ESE,115,0.0,0.0,97,0.00,,,0.01,meteobridge,2017-02-20 12:54:00,
2017-02-20 07:59:00,35.2,34.5,30.27,ESE,115,0.0,0.0,97,0.00,,,0.01,meteobridge,2017-02-20 12:59:00,
2017-02-20 08:04:00,35.4,34.7,30.27,ESE,115,0.0,0.0,97,0.00,,,0.01,meteobridge,2017-02-20 13:04:00,
2017-02-20 08:10:00,35.6,34.9,30.27,ESE,115,0.0,0.0,97,0.00,,,0.01,meteobridge,2017-02-20 13:10:00,
2017-02-20 08:15:00,36.0,35.2,30.28,ESE,117,0.0,0.0,97,0.00,,,0.01,meteobridge,2017-02-20 13:15:00,
2017-02-20 08:20:00,36.3,35.6,30.28,SE,142,0.0,0.0,97,0.00,,,0.01,meteobridge,2017-02-20 13:20:00,
2017-02-20 08:25:00,36.7,36.0,30.28,SE,142,0.0,0.0,97,0.00,,,0.01,meteobridge,2017-02-20 13:25:00,
2017-02-20 08:30:00,37.2,36.5,30.28,SE,128,0.0,0.0,97,0.00,,,0.01,meteobridge,2017-02-20 13:30:00,
2017-02-20 08:36:00,37.9,37.2,30.28,ESE,105,0.0,0.0,97,0.00,,,0.01,meteobridge,2017-02-20 13:36:00,
2017-02-20 08:41:00,38.3,37.6,30.28,SE,142,0.0,0.0,97,0.00,,,0.01,meteobridge,2017-02-20 13:41:00,
2017-02-20 08:46:00,38.7,37.9,30.29,ESE,122,0.0,0.0,97,0.00,,,0.01,meteobridge,2017-02-20 13:46:00,
2017-02-20 08:51:00,38.8,38.1,30.29,SE,140,0.0,0.0,97,0.00,,,0.01,meteobridge,2017-02-20 13:51:00,
2017-02-20 08:56:00,39.4,38.7,30.29,SE,144,0.0,0.0,97,0.00,,,0.01,meteobridge,2017-02-20 13:56:00,
2017-02-20 09:02:00,39.9,39.2,30.29,SE,136,0.0,0.0,97,0.00,,,0.01,meteobridge,2017-02-20 14:02:00,
2017-02-20 09:07:00,40.3,39.6,30.29,ESE,123,0.0,0.0,97,0.00,,,0.01,meteobridge,2017-02-20 14:07:00,
2017-02-20 09:12:00,40.6,39.9,30.28,SE,131,0.0,0.0,97,0.00,,,0.01,meteobridge,2017-02-20 14:12:00,
2017-02-20 09:17:00,41.2,40.5,30.28,ESE,110,0.0,0.0,97,0.00,,,0.01,meteobridge,2017-02-20 14:17:00,
2017-02-20 09:22:00,41.5,40.8,30.28,ESE,103,0.0,0.0,97,0.00,,,0.01,meteobridge,2017-02-20 14:22:00,
2017-02-20 09:27:00,41.9,41.2,30.27,East,88,0.0,0.0,97,0.00,,,0.01,meteobridge,2017-02-20 14:27:00,
2017-02-20 09:33:00,42.1,41.4,30.27,East,82,0.0,0.0,97,0.00,,,0.01,meteobridge,2017-02-20 14:33:00,
2017-02-20 09:38:00,42.3,41.5,30.27,East,84,0.0,0.0,97,0.00,,,0.01,meteobridge,2017-02-20 14:38:00,
2017-02-20 09:43:00,42.6,41.9,30.27,ESE,103,2.0,2.0,97,0.00,,,0.01,meteobridge,2017-02-20 14:43:00,
2017-02-20 09:48:00,43.3,42.6,30.27,ESE,114,0.9,2.0,97,0.00,,,0.01,meteobridge,2017-02-20 14:48:00,
2017-02-20 09:53:00,43.9,43.3,30.27,SE,136,0.9,1.0,98,0.00,,,0.01,meteobridge,2017-02-20 14:53:00,
2017-02-20 09:58:00,44.2,43.7,30.27,ESE,122,2.0,2.0,98,0.00,,,0.01,meteobridge,2017-02-20 14:58:00,
2017-02-20 10:03:00,44.8,44.2,30.27,ESE,111,2.0,3.0,98,0.00,,,0.01,meteobridge,2017-02-20 15:03:00,
2017-02-20 10:08:00,45.7,45.1,30.27,ESE,122,0.9,2.0,98,0.00,,,0.01,meteobridge,2017-02-20 15:08:00,
2017-02-20 10:13:00,46.0,45.5,30.27,East,91,2.0,4.0,98,0.00,,,0.01,meteobridge,2017-02-20 15:13:00,
2017-02-20 10:18:00,46.6,46.0,30.27,SE,124,2.9,4.0,98,0.00,,,0.01,meteobridge,2017-02-20 15:18:00,
2017-02-20 10:23:00,47.1,46.6,30.27,ESE,122,2.9,5.0,98,0.00,,,0.01,meteobridge,2017-02-20 15:23:00,
2017-02-20 10:28:00,47.5,46.9,30.27,East,94,2.9,5.0,98,0.00,,,0.01,meteobridge,2017-02-20 15:28:00,
2017-02-20 10:34:00,48.0,47.5,30.26,East,95,4.0,5.0,98,0.00,,,0.01,meteobridge,2017-02-20 15:34:00,
2017-02-20 10:39:00,48.7,48.2,30.26,East,96,4.0,5.0,98,0.00,,,0.01,meteobridge,2017-02-20 15:39:00,
2017-02-20 10:44:00,49.6,49.1,30.26,ESE,108,6.9,8.0,98,0.00,,,0.01,meteobridge,2017-02-20 15:44:00,
2017-02-20 10:49:00,50.0,49.5,30.26,East,99,8.1,9.0,98,0.00,,,0.01,meteobridge,2017-02-20 15:49:00,
2017-02-20 10:54:00,50.4,49.8,30.27,East,101,8.9,9.0,98,0.00,,,0.01,meteobridge,2017-02-20 15:54:00,
2017-02-20 10:59:00,50.5,49.6,30.27,ESE,122,6.0,9.0,97,0.00,,,0.01,meteobridge,2017-02-20 15:59:00,
2017-02-20 11:04:00,51.1,50.2,30.27,ESE,115,4.9,9.0,97,0.00,,,0.01,meteobridge,2017-02-20 16:04:00,
2017-02-20 11:09:00,51.4,50.5,30.26,East,100,10.1,12.0,97,0.00,,,0.01,meteobridge,2017-02-20 16:09:00,
2017-02-20 11:14:00,51.8,50.9,30.26,East,97,6.9,10.0,97,0.00,,,0.01,meteobridge,2017-02-20 16:14:00,
2017-02-20 11:19:00,52.2,51.1,30.27,ESE,105,4.0,11.0,96,0.00,,,0.01,meteobridge,2017-02-20 16:19:00,
2017-02-20 11:24:00,52.5,51.1,30.26,East,96,6.9,11.0,95,0.00,,,0.01,meteobridge,2017-02-20 16:24:00,
2017-02-20 11:29:00,52.9,50.9,30.26,ESE,113,8.1,12.0,93,0.00,,,0.01,meteobridge,2017-02-20 16:29:00,
2017-02-20 11:34:00,53.4,51.1,30.26,ESE,119,6.0,9.0,92,0.00,,,0.01,meteobridge,2017-02-20 16:34:00,
2017-02-20 11:39:00,54.1,50.9,30.26,ESE,121,4.9,10.0,89,0.00,,,0.01,meteobridge,2017-02-20 16:39:00,
2017-02-20 11:44:00,54.5,51.1,30.27,ESE,104,6.9,8.0,88,0.00,,,0.01,meteobridge,2017-02-20 16:44:00,
2017-02-20 11:49:00,54.5,50.7,30.27,East,91,8.1,10.0,87,0.00,,,0.01,meteobridge,2017-02-20 16:49:00,
2017-02-20 11:54:00,54.7,50.2,30.27,ESE,103,4.9,10.0,85,0.00,,,0.01,meteobridge,2017-02-20 16:54:00,
2017-02-20 11:59:00,55.2,50.5,30.27,East,88,6.9,9.0,84,0.00,,,0.01,meteobridge,2017-02-20 16:59:00,
2017-02-20 12:04:00,55.8,50.4,30.27,NE,53,4.0,9.0,82,0.00,,,0.01,meteobridge,2017-02-20 17:04:00,
2017-02-20 12:09:00,56.1,50.4,30.26,SE,129,8.1,11.0,81,0.00,,,0.01,meteobridge,2017-02-20 17:09:00,
2017-02-20 12:11:00,56.5,50.0,30.26,SSE,163,6.9,11.0,79,0.00,,,0.01,meteobridge,2017-02-20 17:11:00,
2017-02-20 12:16:00,56.7,50.2,30.25,ESE,105,2.9,11.0,79,0.00,,,0.01,meteobridge,2017-02-20 17:16:00,
2017-02-20 12:22:00,56.8,49.3,30.25,SE,139,8.1,10.0,76,0.00,,,0.01,meteobridge,2017-02-20 17:22:00,
2017-02-20 12:27:00,56.8,48.9,30.24,SE,124,6.0,11.0,75,0.00,,,0.01,meteobridge,2017-02-20 17:27:00,
2017-02-20 12:32:00,57.0,48.7,30.24,ESE,111,6.9,10.0,74,0.00,,,0.01,meteobridge,2017-02-20 17:32:00,
2017-02-20 12:37:00,57.7,49.8,30.23,SE,125,4.0,9.0,75,0.00,,,0.01,meteobridge,2017-02-20 17:37:00,
2017-02-20 12:42:00,58.3,48.9,30.23,East,82,6.0,11.0,71,0.00,,,0.01,meteobridge,2017-02-20 17:42:00,
2017-02-20 12:47:00,58.3,47.8,30.23,SE,127,11.0,12.0,68,0.00,,,0.01,meteobridge,2017-02-20 17:47:00,
2017-02-20 12:52:00,58.8,48.2,30.22,SE,132,4.9,10.0,68,0.00,,,0.01,meteobridge,2017-02-20 17:52:00,
2017-02-20 12:57:00,59.2,48.6,30.22,ESE,120,8.9,9.0,68,0.00,,,0.01,meteobridge,2017-02-20 17:57:00,
2017-02-20 13:02:00,59.5,48.2,30.22,ESE,103,13.0,13.0,66,0.00,,,0.01,meteobridge,2017-02-20 18:02:00,
2017-02-20 13:07:00,59.4,47.7,30.22,East,97,10.1,11.0,65,0.00,,,0.01,meteobridge,2017-02-20 18:07:00,
2017-02-20 13:12:00,59.5,46.6,30.21,SE,127,8.9,11.0,62,0.00,,,0.01,meteobridge,2017-02-20 18:12:00,
2017-02-20 13:17:00,59.5,46.6,30.21,SSE,147,6.0,12.0,62,0.00,,,0.01,meteobridge,2017-02-20 18:17:00,
2017-02-20 13:22:00,59.7,46.8,30.21,ESE,118,8.1,10.0,62,0.00,,,0.01,meteobridge,2017-02-20 18:22:00,
2017-02-20 13:27:00,59.9,46.8,30.21,SE,133,4.9,9.0,62,0.00,,,0.01,meteobridge,2017-02-20 18:27:00,
2017-02-20 13:32:00,60.1,46.2,30.21,SE,135,6.0,13.0,60,0.00,,,0.01,meteobridge,2017-02-20 18:32:00,
2017-02-20 13:37:00,60.4,47.8,30.21,SSE,159,8.1,10.0,63,0.00,,,0.01,meteobridge,2017-02-20 18:37:00,
2017-02-20 13:42:00,60.4,46.4,30.21,ESE,123,6.0,9.0,60,0.00,,,0.01,meteobridge,2017-02-20 18:42:00,
2017-02-20 13:48:00,60.8,46.8,30.21,ESE,108,8.1,9.0,60,0.00,,,0.01,meteobridge,2017-02-20 18:48:00,
2017-02-20 13:53:00,61.0,47.5,30.20,SSE,153,4.0,7.0,61,0.00,,,0.01,meteobridge,2017-02-20 18:53:00,
2017-02-20 13:58:00,61.0,46.0,30.20,SE,146,6.0,11.0,58,0.00,,,0.01,meteobridge,2017-02-20 18:58:00,
2017-02-20 14:03:00,61.2,46.8,30.20,SE,127,6.9,11.0,59,0.00,,,0.01,meteobridge,2017-02-20 19:03:00,
2017-02-20 14:08:00,61.2,46.2,30.20,SE,139,4.0,10.0,58,0.00,,,0.01,meteobridge,2017-02-20 19:08:00,
2017-02-20 14:13:00,61.3,46.0,30.19,SE,139,8.9,11.0,57,0.00,,,0.01,meteobridge,2017-02-20 19:13:00,
2017-02-20 14:18:00,61.2,45.9,30.19,SE,138,6.9,10.0,57,0.00,,,0.01,meteobridge,2017-02-20 19:18:00,
2017-02-20 14:23:00,61.5,44.2,30.19,SE,142,8.1,12.0,53,0.00,,,0.01,meteobridge,2017-02-20 19:23:00,
2017-02-20 14:28:00,62.1,45.1,30.19,SE,137,6.9,9.0,54,0.00,,,0.01,meteobridge,2017-02-20 19:28:00,
2017-02-20 14:33:00,62.2,45.0,30.19,SE,138,6.0,10.0,53,0.00,,,0.01,meteobridge,2017-02-20 19:33:00,
2017-02-20 14:38:00,62.2,44.4,30.19,SE,146,4.0,7.0,52,0.00,,,0.01,meteobridge,2017-02-20 19:38:00,
2017-02-20 14:43:00,62.4,45.1,30.18,SE,142,6.0,11.0,53,0.00,,,0.01,meteobridge,2017-02-20 19:43:00,
2017-02-20 14:48:00,62.2,44.4,30.18,ESE,108,10.1,10.1,52,0.00,,,0.01,meteobridge,2017-02-20 19:48:00,
2017-02-20 14:53:00,62.2,44.4,30.17,SE,128,8.1,11.0,52,0.00,,,0.01,meteobridge,2017-02-20 19:53:00,
2017-02-20 15:04:00,62.1,44.2,30.16,SE,141,6.9,12.0,52,0.00,,,0.01,meteobridge,2017-02-20 20:04:00,
2017-02-20 15:09:00,62.2,44.4,30.17,SE,136,4.9,10.0,52,0.00,,,0.01,meteobridge,2017-02-20 20:09:00,
2017-02-20 15:14:00,62.8,43.3,30.18,SE,140,8.1,10.0,49,0.00,,,0.01,meteobridge,2017-02-20 20:14:00,
2017-02-20 15:19:00,63.1,44.8,30.16,SE,129,8.1,9.0,51,0.00,,,0.01,meteobridge,2017-02-20 20:19:00,
2017-02-20 15:24:00,63.1,43.2,30.17,ESE,123,6.9,12.0,48,0.00,,,0.01,meteobridge,2017-02-20 20:24:00,
2017-02-20 15:29:00,63.1,43.7,30.18,SE,139,6.0,9.0,49,0.00,,,0.01,meteobridge,2017-02-20 20:29:00,
2017-02-20 15:34:00,63.1,43.2,30.18,SE,126,8.9,10.0,48,0.00,,,0.01,meteobridge,2017-02-20 20:34:00,
2017-02-20 15:39:00,63.3,43.9,30.18,East,94,4.0,9.0,49,0.00,,,0.01,meteobridge,2017-02-20 20:39:00,
2017-02-20 15:44:00,63.9,44.8,30.18,South,176,6.9,9.0,50,0.00,,,0.01,meteobridge,2017-02-20 20:44:00,
2017-02-20 15:49:00,63.9,44.8,30.18,SE,136,0.0,4.0,50,0.00,,,0.01,meteobridge,2017-02-20 20:49:00,
2017-02-20 15:54:00,63.9,44.8,30.17,East,101,6.9,9.0,50,0.00,,,0.01,meteobridge,2017-02-20 20:54:00,
2017-02-20 15:59:00,63.9,45.3,30.17,ESE,105,6.0,7.0,51,0.00,,,0.01,meteobridge,2017-02-20 20:59:00,
2017-02-20 16:04:00,63.9,45.9,30.17,SE,125,6.9,9.0,52,0.00,,,0.01,meteobridge,2017-02-20 21:04:00,
2017-02-20 16:09:00,63.7,43.7,30.16,SE,129,4.9,10.0,48,0.00,,,0.01,meteobridge,2017-02-20 21:09:00,
2017-02-20 16:14:00,63.7,42.4,30.16,SE,137,6.0,11.0,46,0.00,,,0.01,meteobridge,2017-02-20 21:14:00,
2017-02-20 16:20:00,63.5,42.3,30.16,SE,133,8.1,12.0,46,0.00,,,0.01,meteobridge,2017-02-20 21:20:00,
2017-02-20 16:25:00,63.3,41.0,30.16,SE,129,6.9,11.0,44,0.00,,,0.01,meteobridge,2017-02-20 21:25:00,
2017-02-20 16:30:00,63.3,41.5,30.16,ESE,123,6.9,9.0,45,0.00,,,0.01,meteobridge,2017-02-20 21:30:00,
2017-02-20 16:35:00,63.3,42.3,30.16,ESE,109,4.9,9.0,46,0.00,,,0.01,meteobridge,2017-02-20 21:35:00,
2017-02-20 16:40:00,63.3,42.8,30.16,ESE,120,6.9,10.0,47,0.00,,,0.01,meteobridge,2017-02-20 21:40:00,
2017-02-20 16:45:00,63.3,42.8,30.15,ESE,116,8.9,10.0,47,0.00,,,0.01,meteobridge,2017-02-20 21:45:00,
2017-02-20 16:50:00,63.3,42.8,30.15,SE,141,4.0,8.0,47,0.00,,,0.01,meteobridge,2017-02-20 21:50:00,
2017-02-20 16:55:00,63.0,41.9,30.15,ESE,105,6.0,10.0,46,0.00,,,0.01,meteobridge,2017-02-20 21:55:00,
2017-02-20 17:00:00,62.8,42.8,30.15,ESE,106,4.0,7.0,48,0.00,,,0.01,meteobridge,2017-02-20 22:00:00,
2017-02-20 17:05:00,62.2,42.3,30.14,ESE,110,4.9,10.0,48,0.00,,,0.01,meteobridge,2017-02-20 22:05:00,
2017-02-20 17:10:00,61.9,42.4,30.14,East,98,6.9,11.0,49,0.00,,,0.01,meteobridge,2017-02-20 22:10:00,
2017-02-20 17:15:00,61.3,42.6,30.14,East,90,6.9,8.0,50,0.00,,,0.01,meteobridge,2017-02-20 22:15:00,
2017-02-20 17:20:00,61.0,42.3,30.14,ESE,103,4.0,6.0,50,0.00,,,0.01,meteobridge,2017-02-20 22:20:00,
2017-02-20 17:25:00,60.6,41.9,30.14,ESE,108,4.9,6.0,50,0.00,,,0.01,meteobridge,2017-02-20 22:25:00,
2017-02-20 17:30:00,60.1,41.9,30.14,ESE,116,4.9,5.0,51,0.00,,,0.01,meteobridge,2017-02-20 22:30:00,
2017-02-20 17:35:00,59.7,41.5,30.15,ESE,106,4.0,6.0,51,0.00,,,0.01,meteobridge,2017-02-20 22:35:00,
2017-02-20 17:41:00,59.4,41.7,30.15,ESE,118,4.0,5.0,52,0.00,,,0.01,meteobridge,2017-02-20 22:41:00,
2017-02-20 17:46:00,59.2,42.1,30.15,ESE,111,2.0,5.0,53,0.00,,,0.01,meteobridge,2017-02-20 22:46:00,
2017-02-20 17:51:00,58.8,42.3,30.15,ESE,115,2.9,4.0,54,0.00,,,0.01,meteobridge,2017-02-20 22:51:00,
2017-02-20 17:56:00,58.3,42.3,30.15,ESE,110,2.9,3.0,55,0.00,,,0.01,meteobridge,2017-02-20 22:56:00,
2017-02-20 18:01:00,57.7,42.1,30.16,East,94,4.0,4.0,56,0.00,,,0.01,meteobridge,2017-02-20 23:01:00,
2017-02-20 18:06:00,57.7,42.1,30.16,SE,131,2.0,4.0,56,0.00,,,0.01,meteobridge,2017-02-20 23:06:00,
2017-02-20 18:11:00,57.6,41.9,30.16,ESE,103,4.0,5.0,56,0.00,,,0.01,meteobridge,2017-02-20 23:11:00,
2017-02-20 18:16:00,57.4,42.3,30.16,East,96,2.9,4.0,57,0.00,,,0.01,meteobridge,2017-02-20 23:16:00,
2017-02-20 18:21:00,57.0,41.9,30.15,ESE,106,4.0,4.0,57,0.00,,,0.01,meteobridge,2017-02-20 23:21:00,
2017-02-20 18:26:00,56.7,42.1,30.15,East,97,4.0,6.0,58,0.00,,,0.01,meteobridge,2017-02-20 23:26:00,
2017-02-20 18:31:00,56.5,41.9,30.15,East,101,4.0,5.0,58,0.00,,,0.01,meteobridge,2017-02-20 23:31:00,
2017-02-20 18:36:00,55.9,41.9,30.16,ESE,114,2.0,3.0,59,0.00,,,0.01,meteobridge,2017-02-20 23:36:00,
2017-02-20 18:41:00,55.6,41.9,30.16,East,101,4.0,4.0,60,0.00,,,0.01,meteobridge,2017-02-20 23:41:00,
2017-02-20 18:46:00,55.0,41.9,30.16,ESE,102,4.0,4.0,61,0.00,,,0.01,meteobridge,2017-02-20 23:46:00,
2017-02-20 18:51:00,55.0,41.9,30.16,ESE,105,4.0,4.0,61,0.00,,,0.01,meteobridge,2017-02-20 23:51:00,
2017-02-20 18:57:00,54.9,41.2,30.15,East,97,2.9,6.0,60,0.00,,,0.01,meteobridge,2017-02-20 23:57:00,
2017-02-20 19:02:00,54.9,41.2,30.15,East,92,4.0,6.0,60,0.00,,,0.01,meteobridge,2017-02-21 00:02:00,
2017-02-20 19:07:00,54.7,41.5,30.15,East,98,4.9,6.0,61,0.00,,,0.01,meteobridge,2017-02-21 00:07:00,
2017-02-20 19:12:00,54.3,41.5,30.15,ESE,103,4.9,5.0,62,0.00,,,0.01,meteobridge,2017-02-21 00:12:00,
2017-02-20 19:17:00,54.0,41.7,30.15,ESE,113,2.9,5.0,63,0.00,,,0.01,meteobridge,2017-02-21 00:17:00,
2017-02-20 19:22:00,53.8,41.5,30.15,East,96,0.9,3.0,63,0.00,,,0.01,meteobridge,2017-02-21 00:22:00,
2017-02-20 19:27:00,53.1,41.2,30.15,ESE,103,2.0,2.0,64,0.00,,,0.01,meteobridge,2017-02-21 00:27:00,
2017-02-20 19:32:00,52.5,41.5,30.15,East,94,0.9,2.0,66,0.00,,,0.01,meteobridge,2017-02-21 00:32:00,
2017-02-20 19:37:00,52.2,41.2,30.15,ENE,77,2.0,3.0,66,0.00,,,0.01,meteobridge,2017-02-21 00:37:00,
2017-02-20 19:42:00,52.0,41.4,30.15,ESE,108,0.0,3.0,67,0.00,,,0.01,meteobridge,2017-02-21 00:42:00,
2017-02-20 19:47:00,52.0,41.4,30.15,East,96,2.0,3.0,67,0.00,,,0.01,meteobridge,2017-02-21 00:47:00,
2017-02-20 19:52:00,51.8,41.2,30.15,East,99,2.0,2.0,67,0.00,,,0.01,meteobridge,2017-02-21 00:52:00,
2017-02-20 19:57:00,51.3,41.0,30.15,East,101,2.0,2.0,68,0.00,,,0.01,meteobridge,2017-02-21 00:57:00,
2017-02-20 20:02:00,51.1,41.2,30.14,East,98,2.0,3.0,69,0.00,,,0.01,meteobridge,2017-02-21 01:02:00,
2017-02-20 20:07:00,50.7,41.0,30.14,East,101,2.9,3.0,69,0.00,,,0.01,meteobridge,2017-02-21 01:07:00,
2017-02-20 20:12:00,50.7,41.0,30.14,ESE,123,2.0,4.0,69,0.00,,,0.01,meteobridge,2017-02-21 01:12:00,
2017-02-20 20:17:00,51.1,41.2,30.14,ESE,118,2.0,3.0,69,0.00,,,0.01,meteobridge,2017-02-21 01:17:00,
2017-02-20 20:23:00,50.7,41.0,30.14,SE,134,2.0,4.0,69,0.00,,,0.01,meteobridge,2017-02-21 01:23:00,
2017-02-20 20:28:00,50.9,41.2,30.14,SE,126,2.0,3.0,69,0.00,,,0.01,meteobridge,2017-02-21 01:28:00,
2017-02-20 20:33:00,51.3,41.4,30.14,ESE,122,2.0,4.0,69,0.00,,,0.01,meteobridge,2017-02-21 01:33:00,
2017-02-20 20:38:00,51.4,41.2,30.14,ESE,110,0.9,3.0,68,0.00,,,0.01,meteobridge,2017-02-21 01:38:00,
2017-02-20 20:43:00,51.8,41.5,30.14,East,99,0.9,2.0,68,0.00,,,0.01,meteobridge,2017-02-21 01:43:00,
2017-02-20 20:48:00,51.3,41.0,30.14,East,96,2.0,2.0,68,0.00,,,0.01,meteobridge,2017-02-21 01:48:00,
2017-02-20 20:53:00,50.7,41.4,30.14,East,95,2.0,2.0,70,0.00,,,0.01,meteobridge,2017-02-21 01:53:00,
2017-02-20 20:58:00,50.4,41.4,30.14,East,89,2.0,2.0,71,0.00,,,0.01,meteobridge,2017-02-21 01:58:00,
2017-02-20 21:03:00,49.8,41.2,30.14,East,90,0.9,2.0,72,0.00,,,0.01,meteobridge,2017-02-21 02:03:00,
2017-02-20 21:08:00,49.5,41.2,30.14,East,95,0.9,2.0,73,0.00,,,0.01,meteobridge,2017-02-21 02:08:00,
2017-02-20 21:13:00,49.1,40.8,30.14,East,96,0.9,2.0,73,0.00,,,0.01,meteobridge,2017-02-21 02:13:00,
2017-02-20 21:18:00,48.9,41.0,30.14,East,91,2.0,2.0,74,0.00,,,0.01,meteobridge,2017-02-21 02:18:00,
2017-02-20 21:23:00,48.6,40.6,30.13,ESE,102,2.0,3.0,74,0.00,,,0.01,meteobridge,2017-02-21 02:23:00,
2017-02-20 21:29:00,48.4,40.8,30.13,East,96,2.0,2.0,75,0.00,,,0.01,meteobridge,2017-02-21 02:29:00,
2017-02-20 21:34:00,48.6,41.0,30.13,ESE,107,0.0,2.0,75,0.00,,,0.01,meteobridge,2017-02-21 02:34:00,
2017-02-20 21:39:00,48.7,41.2,30.13,East,97,0.9,2.0,75,0.00,,,0.01,meteobridge,2017-02-21 02:39:00,
2017-02-20 21:44:00,48.9,41.4,30.13,ESE,116,2.0,3.0,75,0.00,,,0.01,meteobridge,2017-02-21 02:44:00,
2017-02-20 21:49:00,48.9,41.4,30.13,ESE,123,0.9,2.0,75,0.00,,,0.01,meteobridge,2017-02-21 02:49:00,
2017-02-20 21:54:00,48.9,41.4,30.14,SE,131,0.9,2.0,75,0.00,,,0.01,meteobridge,2017-02-21 02:54:00,
2017-02-20 21:59:00,49.3,41.4,30.14,SE,134,0.9,2.0,74,0.00,,,0.01,meteobridge,2017-02-21 02:59:00,
2017-02-20 22:04:00,49.8,41.2,30.13,ESE,105,2.9,3.0,72,0.00,,,0.01,meteobridge,2017-02-21 03:04:00,
2017-02-20 22:09:00,49.6,41.4,30.12,East,84,2.9,4.0,73,0.00,,,0.01,meteobridge,2017-02-21 03:09:00,